sensor_id;sensor_type;location;lat;lon;timestamp;pressure;altitude;pressure_sealevel;temperature;humidity
54628;BME280;40525;55.926;21.066;2023-08-06T00:03:22;101026.67;;;19.17;82.47
54628;BME280;40525;55.926;21.066;2023-08-06T00:05:49;101024.71;;;19.15;82.51
54628;BME280;40525;55.926;21.066;2023-08-06T00:08:16;101017.30;;;19.14;82.41
54628;BME280;40525;55.926;21.066;2023-08-06T00:10:43;101007.57;;;19.13;82.32
54628;BME280;40525;55.926;21.066;2023-08-06T00:13:10;101002.86;;;19.12;82.25
54628;BME280;40525;55.926;21.066;2023-08-06T00:15:37;101006.45;;;19.09;82.16
54628;BME280;40525;55.926;21.066;2023-08-06T00:18:05;100998.80;;;19.07;82.12
54628;BME280;40525;55.926;21.066;2023-08-06T00:20:32;100991.23;;;19.05;82.01
54628;BME280;40525;55.926;21.066;2023-08-06T00:22:59;100981.71;;;19.04;82.27
54628;BME280;40525;55.926;21.066;2023-08-06T00:25:44;100969.24;;;19.04;82.52
54628;BME280;40525;55.926;21.066;2023-08-06T00:28:10;100963.89;;;19.04;82.65
54628;BME280;40525;55.926;21.066;2023-08-06T00:30:37;100963.78;;;19.03;82.50
54628;BME280;40525;55.926;21.066;2023-08-06T00:33:05;100959.73;;;19.03;82.25
54628;BME280;40525;55.926;21.066;2023-08-06T00:35:32;100957.92;;;19.03;82.21
54628;BME280;40525;55.926;21.066;2023-08-06T00:37:59;100953.59;;;19.01;82.28
54628;BME280;40525;55.926;21.066;2023-08-06T00:40:26;100944.40;;;19.00;82.23
54628;BME280;40525;55.926;21.066;2023-08-06T00:42:55;100934.98;;;18.98;82.58
54628;BME280;40525;55.926;21.066;2023-08-06T00:45:22;100926.66;;;18.99;82.87
54628;BME280;40525;55.926;21.066;2023-08-06T00:47:50;100926.64;;;19.02;83.01
54628;BME280;40525;55.926;21.066;2023-08-06T00:50:18;100919.23;;;19.03;82.89
54628;BME280;40525;55.926;21.066;2023-08-06T00:52:49;100913.23;;;19.00;82.71
54628;BME280;40525;55.926;21.066;2023-08-06T00:55:16;100903.55;;;18.99;82.54
54628;BME280;40525;55.926;21.066;2023-08-06T00:57:44;100900.67;;;18.97;82.41
54628;BME280;40525;55.926;21.066;2023-08-06T01:00:12;100900.20;;;18.96;82.57
54628;BME280;40525;55.926;21.066;2023-08-06T01:02:39;100895.90;;;18.96;82.66
54628;BME280;40525;55.926;21.066;2023-08-06T01:05:06;100905.02;;;18.96;82.73
54628;BME280;40525;55.926;21.066;2023-08-06T01:10:40;100899.42;;;18.99;82.91
54628;BME280;40525;55.926;21.066;2023-08-06T01:13:33;100907.06;;;18.97;82.92
54628;BME280;40525;55.926;21.066;2023-08-06T01:16:05;100905.85;;;18.89;82.77
54628;BME280;40525;55.926;21.066;2023-08-06T01:18:33;100901.52;;;18.86;82.82
54628;BME280;40525;55.926;21.066;2023-08-06T01:21:01;100895.73;;;18.85;82.93
54628;BME280;40525;55.926;21.066;2023-08-06T01:23:28;100889.80;;;18.83;83.05
54628;BME280;40525;55.926;21.066;2023-08-06T01:26:10;100880.98;;;18.82;83.20
54628;BME280;40525;55.926;21.066;2023-08-06T01:31:37;100867.36;;;18.80;83.45
54628;BME280;40525;55.926;21.066;2023-08-06T01:34:17;100858.08;;;18.78;83.42
54628;BME280;40525;55.926;21.066;2023-08-06T01:36:48;100860.13;;;18.77;83.28
54628;BME280;40525;55.926;21.066;2023-08-06T01:39:15;100858.73;;;18.77;83.44
54628;BME280;40525;55.926;21.066;2023-08-06T01:41:42;100859.59;;;18.80;83.83
54628;BME280;40525;55.926;21.066;2023-08-06T01:44:10;100859.88;;;18.83;84.01
54628;BME280;40525;55.926;21.066;2023-08-06T01:46:37;100850.34;;;18.86;84.11
54628;BME280;40525;55.926;21.066;2023-08-06T01:49:03;100850.27;;;18.89;83.98
54628;BME280;40525;55.926;21.066;2023-08-06T01:51:31;100849.92;;;18.90;84.02
54628;BME280;40525;55.926;21.066;2023-08-06T01:53:58;100849.69;;;18.88;83.75
54628;BME280;40525;55.926;21.066;2023-08-06T01:56:25;100841.65;;;18.84;83.75
54628;BME280;40525;55.926;21.066;2023-08-06T01:58:52;100838.57;;;18.82;83.77
54628;BME280;40525;55.926;21.066;2023-08-06T02:01:19;100835.58;;;18.84;83.96
54628;BME280;40525;55.926;21.066;2023-08-06T02:03:46;100830.60;;;18.86;84.07
54628;BME280;40525;55.926;21.066;2023-08-06T02:06:13;100835.77;;;18.88;84.23
54628;BME280;40525;55.926;21.066;2023-08-06T02:08:40;100838.69;;;18.90;84.20
54628;BME280;40525;55.926;21.066;2023-08-06T02:11:07;100828.09;;;18.88;84.22
54628;BME280;40525;55.926;21.066;2023-08-06T02:13:34;100811.67;;;18.89;84.11
54628;BME280;40525;55.926;21.066;2023-08-06T02:16:01;100804.29;;;18.87;83.97
54628;BME280;40525;55.926;21.066;2023-08-06T02:18:28;100799.86;;;18.87;84.03
54628;BME280;40525;55.926;21.066;2023-08-06T02:20:57;100795.24;;;18.85;84.18
54628;BME280;40525;55.926;21.066;2023-08-06T02:23:25;100785.82;;;18.80;84.21
54628;BME280;40525;55.926;21.066;2023-08-06T02:26:03;100782.10;;;18.77;84.34
54628;BME280;40525;55.926;21.066;2023-08-06T02:28:31;100781.23;;;18.77;84.58
54628;BME280;40525;55.926;21.066;2023-08-06T02:30:59;100775.13;;;18.75;84.70
54628;BME280;40525;55.926;21.066;2023-08-06T02:33:27;100778.39;;;18.74;84.60
54628;BME280;40525;55.926;21.066;2023-08-06T02:36:02;100783.91;;;18.72;84.28
54628;BME280;40525;55.926;21.066;2023-08-06T02:38:33;100779.70;;;18.69;84.50
54628;BME280;40525;55.926;21.066;2023-08-06T02:41:02;100773.65;;;18.69;84.73
54628;BME280;40525;55.926;21.066;2023-08-06T02:43:31;100770.54;;;18.68;84.98
54628;BME280;40525;55.926;21.066;2023-08-06T02:45:59;100766.27;;;18.68;85.18
54628;BME280;40525;55.926;21.066;2023-08-06T02:48:27;100752.77;;;18.70;85.52
54628;BME280;40525;55.926;21.066;2023-08-06T02:50:58;100749.70;;;18.72;85.53
54628;BME280;40525;55.926;21.066;2023-08-06T02:53:27;100745.50;;;18.71;85.46
54628;BME280;40525;55.926;21.066;2023-08-06T02:55:54;100738.63;;;18.68;85.30
54628;BME280;40525;55.926;21.066;2023-08-06T02:58:26;100730.25;;;18.66;85.23
54628;BME280;40525;55.926;21.066;2023-08-06T03:01:08;100726.25;;;18.67;85.31
54628;BME280;40525;55.926;21.066;2023-08-06T03:03:49;100727.95;;;18.68;85.51
54628;BME280;40525;55.926;21.066;2023-08-06T03:06:21;100734.15;;;18.71;85.76
54628;BME280;40525;55.926;21.066;2023-08-06T03:08:49;100737.87;;;18.76;85.97
54628;BME280;40525;55.926;21.066;2023-08-06T03:11:16;100735.95;;;18.78;86.06
54628;BME280;40525;55.926;21.066;2023-08-06T03:13:44;100728.02;;;18.79;86.02
54628;BME280;40525;55.926;21.066;2023-08-06T03:16:11;100717.22;;;18.80;85.94
54628;BME280;40525;55.926;21.066;2023-08-06T03:18:38;100714.55;;;18.80;85.66
54628;BME280;40525;55.926;21.066;2023-08-06T03:21:07;100714.33;;;18.81;85.51
54628;BME280;40525;55.926;21.066;2023-08-06T03:23:34;100708.83;;;18.83;85.78
54628;BME280;40525;55.926;21.066;2023-08-06T03:26:02;100702.16;;;18.86;86.04
54628;BME280;40525;55.926;21.066;2023-08-06T03:28:31;100710.77;;;18.85;86.04
54628;BME280;40525;55.926;21.066;2023-08-06T03:31:02;100713.86;;;18.85;86.10
54628;BME280;40525;55.926;21.066;2023-08-06T03:33:37;100703.38;;;18.84;85.87
54628;BME280;40525;55.926;21.066;2023-08-06T03:36:06;100681.23;;;18.83;85.67
54628;BME280;40525;55.926;21.066;2023-08-06T03:38:33;100661.21;;;18.84;85.78
54628;BME280;40525;55.926;21.066;2023-08-06T03:41:02;100652.88;;;18.85;85.97
54628;BME280;40525;55.926;21.066;2023-08-06T03:43:29;100649.86;;;18.87;86.24
54628;BME280;40525;55.926;21.066;2023-08-06T03:45:57;100659.73;;;18.91;86.55
54628;BME280;40525;55.926;21.066;2023-08-06T03:48:24;100664.77;;;18.95;86.63
54628;BME280;40525;55.926;21.066;2023-08-06T03:50:51;100657.05;;;18.95;86.74
54628;BME280;40525;55.926;21.066;2023-08-06T03:53:19;100650.71;;;18.94;86.72
54628;BME280;40525;55.926;21.066;2023-08-06T03:55:46;100635.16;;;18.93;86.66
54628;BME280;40525;55.926;21.066;2023-08-06T03:58:13;100620.02;;;18.90;86.46
54628;BME280;40525;55.926;21.066;2023-08-06T04:00:41;100615.27;;;18.90;86.45
54628;BME280;40525;55.926;21.066;2023-08-06T04:03:08;100597.67;;;18.92;86.60
54628;BME280;40525;55.926;21.066;2023-08-06T04:05:35;100593.59;;;18.91;86.68
54628;BME280;40525;55.926;21.066;2023-08-06T04:08:02;100609.52;;;18.93;87.04
54628;BME280;40525;55.926;21.066;2023-08-06T04:10:30;100618.04;;;18.95;87.27
54628;BME280;40525;55.926;21.066;2023-08-06T04:12:57;100616.79;;;18.97;87.56
54628;BME280;40525;55.926;21.066;2023-08-06T04:15:24;100613.86;;;18.98;87.60
54628;BME280;40525;55.926;21.066;2023-08-06T04:17:51;100617.16;;;18.97;87.29
54628;BME280;40525;55.926;21.066;2023-08-06T04:20:18;100623.86;;;18.96;87.11
54628;BME280;40525;55.926;21.066;2023-08-06T04:22:45;100633.00;;;18.95;87.37
54628;BME280;40525;55.926;21.066;2023-08-06T04:25:12;100646.85;;;18.96;87.52
54628;BME280;40525;55.926;21.066;2023-08-06T04:27:39;100673.80;;;18.95;87.87
54628;BME280;40525;55.926;21.066;2023-08-06T04:30:09;100715.94;;;18.94;87.99
54628;BME280;40525;55.926;21.066;2023-08-06T04:32:39;100730.48;;;18.86;88.54
54628;BME280;40525;55.926;21.066;2023-08-06T04:35:07;100708.03;;;18.74;88.90
54628;BME280;40525;55.926;21.066;2023-08-06T04:37:35;100651.92;;;18.75;89.61
54628;BME280;40525;55.926;21.066;2023-08-06T04:40:02;100613.71;;;18.76;89.70
54628;BME280;40525;55.926;21.066;2023-08-06T04:42:29;100630.83;;;18.76;90.12
54628;BME280;40525;55.926;21.066;2023-08-06T04:44:56;100672.05;;;18.75;90.71
54628;BME280;40525;55.926;21.066;2023-08-06T04:47:23;100690.14;;;18.76;91.32
54628;BME280;40525;55.926;21.066;2023-08-06T04:49:53;100664.73;;;18.80;91.87
54628;BME280;40525;55.926;21.066;2023-08-06T04:52:20;100633.42;;;18.83;92.22
54628;BME280;40525;55.926;21.066;2023-08-06T04:54:47;100611.73;;;18.85;92.44
54628;BME280;40525;55.926;21.066;2023-08-06T04:57:14;100595.98;;;18.86;92.65
54628;BME280;40525;55.926;21.066;2023-08-06T04:59:41;100640.13;;;18.87;92.88
54628;BME280;40525;55.926;21.066;2023-08-06T05:02:08;100639.52;;;18.85;92.88
54628;BME280;40525;55.926;21.066;2023-08-06T05:04:35;100620.09;;;18.85;93.25
54628;BME280;40525;55.926;21.066;2023-08-06T05:07:02;100628.29;;;18.83;93.64
54628;BME280;40525;55.926;21.066;2023-08-06T05:09:29;100639.26;;;18.77;93.94
54628;BME280;40525;55.926;21.066;2023-08-06T05:11:56;100672.02;;;18.73;93.93
54628;BME280;40525;55.926;21.066;2023-08-06T05:14:23;100715.92;;;18.74;94.22
54628;BME280;40525;55.926;21.066;2023-08-06T05:16:50;100727.80;;;18.75;94.70
54628;BME280;40525;55.926;21.066;2023-08-06T07:33:24;100319.20;;;20.74;97.59
54628;BME280;40525;55.926;21.066;2023-08-06T07:35:51;100318.30;;;20.79;97.60
54628;BME280;40525;55.926;21.066;2023-08-06T07:38:18;100317.99;;;20.86;97.73
54628;BME280;40525;55.926;21.066;2023-08-06T07:40:47;100310.27;;;20.92;98.07
54628;BME280;40525;55.926;21.066;2023-08-06T07:43:14;100311.30;;;20.98;98.28
54628;BME280;40525;55.926;21.066;2023-08-06T07:45:41;100305.69;;;21.06;98.80
54628;BME280;40525;55.926;21.066;2023-08-06T07:48:08;100294.61;;;21.16;98.87
54628;BME280;40525;55.926;21.066;2023-08-06T07:50:35;100289.23;;;21.27;98.80
54628;BME280;40525;55.926;21.066;2023-08-06T07:53:02;100287.30;;;21.35;98.76
54628;BME280;40525;55.926;21.066;2023-08-06T07:55:30;100282.36;;;21.40;98.46
54628;BME280;40525;55.926;21.066;2023-08-06T07:57:57;100280.67;;;21.47;98.39
54628;BME280;40525;55.926;21.066;2023-08-06T08:00:27;100284.21;;;21.55;98.11
54628;BME280;40525;55.926;21.066;2023-08-06T08:02:54;100278.38;;;21.61;97.90
54628;BME280;40525;55.926;21.066;2023-08-06T08:05:21;100271.90;;;21.69;97.82
54628;BME280;40525;55.926;21.066;2023-08-06T08:07:48;100271.82;;;21.73;97.30
54628;BME280;40525;55.926;21.066;2023-08-06T08:10:15;100269.13;;;21.77;96.93
54628;BME280;40525;55.926;21.066;2023-08-06T08:12:42;100265.54;;;21.84;96.84
54628;BME280;40525;55.926;21.066;2023-08-06T08:15:09;100261.23;;;21.91;96.44
54628;BME280;40525;55.926;21.066;2023-08-06T08:17:36;100256.71;;;21.95;96.12
54628;BME280;40525;55.926;21.066;2023-08-06T08:20:04;100252.17;;;21.98;95.67
54628;BME280;40525;55.926;21.066;2023-08-06T08:22:31;100244.94;;;22.00;95.23
54628;BME280;40525;55.926;21.066;2023-08-06T08:24:58;100238.92;;;22.03;95.29
54628;BME280;40525;55.926;21.066;2023-08-06T08:27:25;100235.79;;;22.08;95.01
54628;BME280;40525;55.926;21.066;2023-08-06T08:29:52;100235.77;;;22.11;94.85
54628;BME280;40525;55.926;21.066;2023-08-06T08:32:19;100237.23;;;22.16;94.58
54628;BME280;40525;55.926;21.066;2023-08-06T08:34:46;100236.73;;;22.17;94.08
54628;BME280;40525;55.926;21.066;2023-08-06T08:37:13;100228.06;;;22.11;93.69
54628;BME280;40525;55.926;21.066;2023-08-06T08:39:40;100229.59;;;22.10;94.08
54628;BME280;40525;55.926;21.066;2023-08-06T08:42:08;100237.79;;;22.18;94.34
54628;BME280;40525;55.926;21.066;2023-08-06T08:44:36;100241.67;;;22.31;94.59
54628;BME280;40525;55.926;21.066;2023-08-06T08:47:10;100234.52;;;22.39;94.16
54628;BME280;40525;55.926;21.066;2023-08-06T08:49:38;100227.86;;;22.48;94.14
54628;BME280;40525;55.926;21.066;2023-08-06T08:52:06;100221.65;;;22.58;93.97
54628;BME280;40525;55.926;21.066;2023-08-06T08:54:38;100206.56;;;22.62;93.44
54628;BME280;40525;55.926;21.066;2023-08-06T08:57:05;100201.25;;;22.70;93.54
54628;BME280;40525;55.926;21.066;2023-08-06T08:59:33;100199.78;;;22.80;93.60
54628;BME280;40525;55.926;21.066;2023-08-06T09:02:01;100205.63;;;22.89;92.99
54628;BME280;40525;55.926;21.066;2023-08-06T09:04:30;100215.02;;;22.94;92.39
54628;BME280;40525;55.926;21.066;2023-08-06T09:07:02;100208.90;;;22.97;92.44
54628;BME280;40525;55.926;21.066;2023-08-06T09:09:35;100202.60;;;22.99;92.36
54628;BME280;40525;55.926;21.066;2023-08-06T09:12:14;100197.39;;;23.01;92.28
54628;BME280;40525;55.926;21.066;2023-08-06T09:14:43;100193.97;;;23.07;92.08
54628;BME280;40525;55.926;21.066;2023-08-06T09:17:10;100186.98;;;23.17;92.37
54628;BME280;40525;55.926;21.066;2023-08-06T09:19:43;100188.62;;;23.31;92.37
54628;BME280;40525;55.926;21.066;2023-08-06T09:22:15;100201.84;;;23.42;91.90
54628;BME280;40525;55.926;21.066;2023-08-06T09:24:42;100208.58;;;23.45;91.41
54628;BME280;40525;55.926;21.066;2023-08-06T09:27:13;100204.34;;;23.44;91.00
54628;BME280;40525;55.926;21.066;2023-08-06T09:29:42;100196.58;;;23.46;90.91
54628;BME280;40525;55.926;21.066;2023-08-06T09:32:09;100180.60;;;23.51;91.02
54628;BME280;40525;55.926;21.066;2023-08-06T09:34:39;100171.53;;;23.58;90.91
54628;BME280;40525;55.926;21.066;2023-08-06T09:37:08;100169.46;;;23.66;90.94
54628;BME280;40525;55.926;21.066;2023-08-06T09:39:39;100170.06;;;23.77;90.91
54628;BME280;40525;55.926;21.066;2023-08-06T09:42:09;100159.00;;;23.88;90.95
54628;BME280;40525;55.926;21.066;2023-08-06T09:44:40;100153.55;;;24.04;90.80
54628;BME280;40525;55.926;21.066;2023-08-06T09:47:07;100148.63;;;24.21;90.61
54628;BME280;40525;55.926;21.066;2023-08-06T09:52:01;100130.95;;;24.57;90.17
54628;BME280;40525;55.926;21.066;2023-08-06T09:54:28;100125.95;;;24.76;89.37
54628;BME280;40525;55.926;21.066;2023-08-06T09:56:57;100118.59;;;24.94;89.21
54628;BME280;40525;55.926;21.066;2023-08-06T09:59:24;100112.35;;;25.11;88.76
54628;BME280;40525;55.926;21.066;2023-08-06T10:01:51;100106.45;;;25.26;88.43
54628;BME280;40525;55.926;21.066;2023-08-06T10:04:20;100104.86;;;25.42;88.36
54628;BME280;40525;55.926;21.066;2023-08-06T10:06:52;100102.71;;;25.60;87.72
54628;BME280;40525;55.926;21.066;2023-08-06T10:09:19;100096.95;;;25.76;87.44
54628;BME280;40525;55.926;21.066;2023-08-06T10:11:50;100096.36;;;25.90;86.63
54628;BME280;40525;55.926;21.066;2023-08-06T10:14:25;100097.86;;;26.01;85.76
54628;BME280;40525;55.926;21.066;2023-08-06T10:16:56;100095.81;;;26.09;84.84
54628;BME280;40525;55.926;21.066;2023-08-06T10:19:25;100087.70;;;26.21;85.02
54628;BME280;40525;55.926;21.066;2023-08-06T10:22:12;100079.17;;;26.34;84.52
54628;BME280;40525;55.926;21.066;2023-08-06T10:24:51;100070.78;;;26.49;84.59
54628;BME280;40525;55.926;21.066;2023-08-06T10:30:20;100060.52;;;26.82;83.12
54628;BME280;40525;55.926;21.066;2023-08-06T10:32:49;100058.86;;;27.00;83.22
54628;BME280;40525;55.926;21.066;2023-08-06T10:38:15;100047.66;;;27.25;81.78
54628;BME280;40525;55.926;21.066;2023-08-06T10:43:29;100041.81;;;27.55;80.79
54628;BME280;40525;55.926;21.066;2023-08-06T10:45:58;100037.67;;;27.70;80.29
54628;BME280;40525;55.926;21.066;2023-08-06T10:48:34;100026.98;;;27.84;79.31
54628;BME280;40525;55.926;21.066;2023-08-06T10:51:04;100019.16;;;27.97;78.98
54628;BME280;40525;55.926;21.066;2023-08-06T10:53:31;100015.02;;;28.15;78.91
54628;BME280;40525;55.926;21.066;2023-08-06T10:56:21;100012.02;;;28.32;78.47
54628;BME280;40525;55.926;21.066;2023-08-06T10:58:54;100001.31;;;28.52;77.71
54628;BME280;40525;55.926;21.066;2023-08-06T11:01:28;99995.17;;;28.68;77.29
54628;BME280;40525;55.926;21.066;2023-08-06T11:04:01;99989.46;;;28.85;75.47
54628;BME280;40525;55.926;21.066;2023-08-06T11:06:29;99983.91;;;28.99;75.56
54628;BME280;40525;55.926;21.066;2023-08-06T11:08:56;99981.10;;;29.19;75.48
54628;BME280;40525;55.926;21.066;2023-08-06T11:11:23;99981.25;;;29.36;74.30
54628;BME280;40525;55.926;21.066;2023-08-06T11:13:51;99971.64;;;29.46;73.96
54628;BME280;40525;55.926;21.066;2023-08-06T11:16:20;99970.15;;;29.58;73.65
54628;BME280;40525;55.926;21.066;2023-08-06T11:18:48;99960.17;;;29.73;73.37
54628;BME280;40525;55.926;21.066;2023-08-06T11:21:19;99952.31;;;29.88;72.62
54628;BME280;40525;55.926;21.066;2023-08-06T11:23:46;99947.11;;;29.98;72.43
54628;BME280;40525;55.926;21.066;2023-08-06T11:26:19;99946.98;;;30.03;71.76
54628;BME280;40525;55.926;21.066;2023-08-06T11:28:46;99941.08;;;30.09;71.23
54628;BME280;40525;55.926;21.066;2023-08-06T11:31:23;99934.20;;;30.20;71.36
54628;BME280;40525;55.926;21.066;2023-08-06T11:33:51;99933.40;;;30.32;70.20
54628;BME280;40525;55.926;21.066;2023-08-06T11:36:29;99925.42;;;30.44;68.83
54628;BME280;40525;55.926;21.066;2023-08-06T11:38:58;99918.91;;;30.63;68.43
54628;BME280;40525;55.926;21.066;2023-08-06T11:41:27;99914.31;;;30.89;68.94
54628;BME280;40525;55.926;21.066;2023-08-06T11:43:55;99908.61;;;31.09;67.28
54628;BME280;40525;55.926;21.066;2023-08-06T11:46:22;99903.34;;;31.32;67.96
54628;BME280;40525;55.926;21.066;2023-08-06T11:48:58;99896.74;;;31.57;67.63
54628;BME280;40525;55.926;21.066;2023-08-06T11:51:26;99890.48;;;31.80;67.04
54628;BME280;40525;55.926;21.066;2023-08-06T11:53:57;99884.86;;;31.94;65.97
54628;BME280;40525;55.926;21.066;2023-08-06T11:56:25;99882.69;;;32.10;65.39
54628;BME280;40525;55.926;21.066;2023-08-06T11:58:54;99879.09;;;32.31;64.86
54628;BME280;40525;55.926;21.066;2023-08-06T12:01:21;99873.09;;;32.55;64.29
54628;BME280;40525;55.926;21.066;2023-08-06T12:03:48;99859.98;;;32.80;63.42
54628;BME280;40525;55.926;21.066;2023-08-06T12:06:15;99858.34;;;33.04;62.51
54628;BME280;40525;55.926;21.066;2023-08-06T12:08:42;99855.27;;;33.22;61.60
54628;BME280;40525;55.926;21.066;2023-08-06T12:11:09;99847.91;;;33.44;61.38
54628;BME280;40525;55.926;21.066;2023-08-06T12:13:36;99840.02;;;33.67;60.48
54628;BME280;40525;55.926;21.066;2023-08-06T12:16:03;99829.59;;;33.89;59.88
54628;BME280;40525;55.926;21.066;2023-08-06T12:18:30;99820.01;;;34.12;59.66
54628;BME280;40525;55.926;21.066;2023-08-06T12:20:57;99814.17;;;34.36;59.03
54628;BME280;40525;55.926;21.066;2023-08-06T12:23:25;99807.79;;;34.59;58.16
54628;BME280;40525;55.926;21.066;2023-08-06T12:25:51;99796.89;;;34.77;57.08
54628;BME280;40525;55.926;21.066;2023-08-06T12:28:19;99789.05;;;34.93;56.06
54628;BME280;40525;55.926;21.066;2023-08-06T12:30:49;99785.11;;;35.06;55.34
54628;BME280;40525;55.926;21.066;2023-08-06T12:33:18;99783.80;;;35.23;53.87
54628;BME280;40525;55.926;21.066;2023-08-06T12:35:45;99776.83;;;35.40;53.90
54628;BME280;40525;55.926;21.066;2023-08-06T12:38:12;99774.91;;;35.56;52.94
54628;BME280;40525;55.926;21.066;2023-08-06T12:40:40;99765.10;;;35.72;53.25
54628;BME280;40525;55.926;21.066;2023-08-06T12:43:09;99762.38;;;35.99;52.78
54628;BME280;40525;55.926;21.066;2023-08-06T12:45:36;99759.41;;;36.24;51.81
54628;BME280;40525;55.926;21.066;2023-08-06T12:48:03;99758.17;;;36.44;51.00
54628;BME280;40525;55.926;21.066;2023-08-06T12:50:30;99750.37;;;36.60;49.80
54628;BME280;40525;55.926;21.066;2023-08-06T12:53:00;99747.98;;;36.82;49.93
54628;BME280;40525;55.926;21.066;2023-08-06T12:55:27;99742.45;;;37.05;47.52
54628;BME280;40525;55.926;21.066;2023-08-06T12:57:58;99743.85;;;37.20;46.65
54628;BME280;40525;55.926;21.066;2023-08-06T13:00:28;99739.50;;;37.44;47.06
54628;BME280;40525;55.926;21.066;2023-08-06T13:02:55;99735.65;;;37.65;45.19
54628;BME280;40525;55.926;21.066;2023-08-06T13:05:22;99733.19;;;37.87;44.48
54628;BME280;40525;55.926;21.066;2023-08-06T13:07:49;99724.38;;;38.05;43.04
54628;BME280;40525;55.926;21.066;2023-08-06T13:10:16;99726.95;;;38.18;42.10
54628;BME280;40525;55.926;21.066;2023-08-06T13:12:44;99724.43;;;38.20;39.24
54628;BME280;40525;55.926;21.066;2023-08-06T13:15:11;99720.80;;;38.20;39.61
54628;BME280;40525;55.926;21.066;2023-08-06T13:17:38;99714.80;;;38.38;40.83
54628;BME280;40525;55.926;21.066;2023-08-06T13:20:05;99718.23;;;38.53;40.25
54628;BME280;40525;55.926;21.066;2023-08-06T13:22:33;99715.54;;;38.59;39.27
54628;BME280;40525;55.926;21.066;2023-08-06T13:25:00;99717.70;;;38.68;39.20
54628;BME280;40525;55.926;21.066;2023-08-06T13:27:26;99716.77;;;38.81;38.34
54628;BME280;40525;55.926;21.066;2023-08-06T13:29:53;99715.39;;;38.85;37.65
54628;BME280;40525;55.926;21.066;2023-08-06T13:32:20;99711.27;;;38.92;37.51
54628;BME280;40525;55.926;21.066;2023-08-06T13:34:47;99707.43;;;38.88;36.01
54628;BME280;40525;55.926;21.066;2023-08-06T13:37:14;99700.42;;;38.90;36.78
54628;BME280;40525;55.926;21.066;2023-08-06T13:39:41;99700.67;;;39.00;37.23
54628;BME280;40525;55.926;21.066;2023-08-06T13:42:08;99693.05;;;39.12;36.45
54628;BME280;40525;55.926;21.066;2023-08-06T13:44:35;99688.69;;;39.11;34.83
54628;BME280;40525;55.926;21.066;2023-08-06T13:47:03;99690.05;;;39.06;35.42
54628;BME280;40525;55.926;21.066;2023-08-06T13:49:30;99686.98;;;39.09;35.82
54628;BME280;40525;55.926;21.066;2023-08-06T13:52:14;99694.16;;;39.18;35.53
54628;BME280;40525;55.926;21.066;2023-08-06T13:54:48;99690.08;;;39.28;35.33
54628;BME280;40525;55.926;21.066;2023-08-06T13:57:15;99687.24;;;39.38;35.24
54628;BME280;40525;55.926;21.066;2023-08-06T13:59:44;99685.48;;;39.09;33.84
54628;BME280;40525;55.926;21.066;2023-08-06T14:02:11;99685.25;;;38.58;33.86
54628;BME280;40525;55.926;21.066;2023-08-06T14:04:39;99684.91;;;38.47;34.36
54628;BME280;40525;55.926;21.066;2023-08-06T14:07:07;99685.17;;;38.62;34.78
54628;BME280;40525;55.926;21.066;2023-08-06T14:09:34;99684.80;;;38.56;34.06
54628;BME280;40525;55.926;21.066;2023-08-06T14:12:01;99675.06;;;38.79;34.14
54628;BME280;40525;55.926;21.066;2023-08-06T14:14:30;99672.52;;;39.03;33.36
54628;BME280;40525;55.926;21.066;2023-08-06T14:16:57;99678.09;;;39.12;33.28
54628;BME280;40525;55.926;21.066;2023-08-06T14:19:24;99676.39;;;39.11;32.84
54628;BME280;40525;55.926;21.066;2023-08-06T14:21:51;99677.54;;;38.99;32.49
54628;BME280;40525;55.926;21.066;2023-08-06T14:24:19;99678.05;;;39.00;32.75
54628;BME280;40525;55.926;21.066;2023-08-06T14:26:46;99676.23;;;39.12;32.67
54628;BME280;40525;55.926;21.066;2023-08-06T14:29:13;99672.95;;;39.31;32.08
54628;BME280;40525;55.926;21.066;2023-08-06T14:31:41;99672.60;;;39.51;31.88
54628;BME280;40525;55.926;21.066;2023-08-06T14:34:08;99669.40;;;39.72;31.60
54628;BME280;40525;55.926;21.066;2023-08-06T14:36:35;99669.83;;;39.85;31.03
54628;BME280;40525;55.926;21.066;2023-08-06T14:39:02;99670.88;;;39.98;31.28
54628;BME280;40525;55.926;21.066;2023-08-06T14:41:29;99669.02;;;40.18;31.79
54628;BME280;40525;55.926;21.066;2023-08-06T14:43:56;99673.64;;;40.25;30.92
54628;BME280;40525;55.926;21.066;2023-08-06T14:46:23;99675.00;;;40.11;30.61
54628;BME280;40525;55.926;21.066;2023-08-06T14:48:50;99676.52;;;40.04;30.07
54628;BME280;40525;55.926;21.066;2023-08-06T14:51:17;99673.98;;;39.92;30.30
54628;BME280;40525;55.926;21.066;2023-08-06T14:53:46;99672.41;;;39.88;30.65
54628;BME280;40525;55.926;21.066;2023-08-06T14:56:13;99669.80;;;40.03;30.77
54628;BME280;40525;55.926;21.066;2023-08-06T14:58:40;99670.00;;;40.15;30.59
54628;BME280;40525;55.926;21.066;2023-08-06T15:01:08;99670.02;;;40.26;30.47
54628;BME280;40525;55.926;21.066;2023-08-06T15:03:35;99670.58;;;40.33;30.37
54628;BME280;40525;55.926;21.066;2023-08-06T15:06:02;99671.38;;;40.29;30.61
54628;BME280;40525;55.926;21.066;2023-08-06T15:08:29;99672.35;;;40.32;30.73
54628;BME280;40525;55.926;21.066;2023-08-06T15:10:56;99673.13;;;40.33;30.31
54628;BME280;40525;55.926;21.066;2023-08-06T15:13:23;99672.24;;;40.38;30.03
54628;BME280;40525;55.926;21.066;2023-08-06T15:15:50;99672.75;;;40.37;29.81
54628;BME280;40525;55.926;21.066;2023-08-06T15:18:17;99673.73;;;40.34;30.19
54628;BME280;40525;55.926;21.066;2023-08-06T15:20:46;99674.88;;;40.27;30.66
54628;BME280;40525;55.926;21.066;2023-08-06T15:23:13;99677.47;;;40.23;30.77